Time;durP1;ratioP1;P1;durP2;ratioP2;P2;SDS_P1;SDS_P2;PMS_P1;PMS_P2;Temp;Humidity;BMP_temperature;BMP_pressure;BME280_temperature;BME280_humidity;BME280_pressure;Samples;Min_cycle;Max_cycle;Signal;HPM_P1;HPM_P2
2022/11/25 00:00:53;;;;;;;7.67;6.07;;;3.70;99.90;;;;;;5030956;28;20545;-71
2022/11/25 00:03:18;;;;;;;7.43;6.33;;;3.70;99.90;;;;;;5035348;28;20487;-70
2022/11/25 00:05:44;;;;;;;14.17;6.30;;;3.60;99.90;;;;;;5032474;28;20178;-71
2022/11/25 00:08:10;;;;;;;11.47;6.00;;;3.70;99.90;;;;;;5029618;28;20189;-72
2022/11/25 00:10:35;;;;;;;9.80;5.73;;;3.60;99.90;;;;;;5033955;28;20182;-72
2022/11/25 00:13:01;;;;;;;8.33;6.27;;;3.60;99.90;;;;;;5027887;28;20218;-72
2022/11/25 00:15:26;;;;;;;14.07;5.60;;;3.60;99.90;;;;;;5028402;28;20205;-70
2022/11/25 00:17:52;;;;;;;8.73;5.37;;;3.60;99.90;;;;;;5031038;28;20179;-73
2022/11/25 00:20:21;;;;;;;10.00;6.10;;;3.60;99.90;;;;;;5028433;28;20652;-70
2022/11/25 00:22:47;;;;;;;11.10;6.20;;;3.60;99.90;;;;;;5032128;28;20201;-71
2022/11/25 00:25:12;;;;;;;13.50;6.00;;;3.60;99.90;;;;;;5029907;28;22391;-73
2022/11/25 00:27:38;;;;;;;9.70;5.93;;;3.60;99.90;;;;;;5029266;28;20443;-71
2022/11/25 00:30:04;;;;;;;11.03;6.10;;;3.60;99.90;;;;;;5042891;28;20693;-71
2022/11/25 00:32:30;;;;;;;13.17;5.60;;;3.70;99.90;;;;;;5032219;28;20205;-70
2022/11/25 00:34:56;;;;;;;15.00;6.43;;;3.70;99.90;;;;;;5029497;28;20929;-71
2022/11/25 00:37:21;;;;;;;12.67;6.17;;;3.70;99.90;;;;;;5024735;28;20190;-71
2022/11/25 00:39:47;;;;;;;6.53;5.07;;;3.80;99.90;;;;;;5028137;28;20179;-70
2022/11/25 00:44:56;;;;;;;11.73;5.17;;;3.80;99.90;;;;;;5032472;28;20272;-72
2022/11/25 00:47:22;;;;;;;5.50;4.70;;;3.80;99.90;;;;;;5031172;28;20946;-71
2022/11/25 00:49:50;;;;;;;12.20;5.20;;;3.70;99.90;;;;;;5032570;28;20515;-71
2022/11/25 00:52:21;;;;;;;7.87;5.10;;;3.80;99.90;;;;;;5032350;28;20248;-70
2022/11/25 00:54:48;;;;;;;8.00;4.70;;;3.80;99.90;;;;;;5032084;28;20983;-70
2022/11/25 00:57:15;;;;;;;10.93;4.20;;;3.90;99.90;;;;;;5028060;28;20878;-71
2022/11/25 00:59:41;;;;;;;8.13;4.90;;;3.90;99.90;;;;;;5024762;28;20437;-71
2022/11/25 01:02:06;;;;;;;6.53;4.30;;;3.90;99.90;;;;;;5038262;28;20980;-70
2022/11/25 01:04:35;;;;;;;8.73;4.80;;;3.90;99.90;;;;;;5039666;28;20209;-72
2022/11/25 01:07:01;;;;;;;5.47;4.43;;;4.00;99.90;;;;;;5034393;28;20228;-72
2022/11/25 01:09:27;;;;;;;8.63;4.83;;;3.90;99.90;;;;;;5039324;28;20447;-73
2022/11/25 01:11:52;;;;;;;8.23;4.77;;;3.90;99.90;;;;;;5030714;28;20472;-71
2022/11/25 01:14:19;;;;;;;7.03;4.70;;;3.90;99.90;;;;;;5039817;28;20514;-71
2022/11/25 01:16:46;;;;;;;6.83;4.83;;;4.00;99.90;;;;;;5037871;28;20182;-71
2022/11/25 01:19:12;;;;;;;9.53;4.83;;;4.00;99.90;;;;;;5039027;28;20433;-71
2022/11/25 01:21:38;;;;;;;7.67;4.80;;;4.10;99.90;;;;;;5030357;28;20456;-71
2022/11/25 01:24:04;;;;;;;11.20;5.20;;;4.10;99.90;;;;;;5031390;28;20451;-71
2022/11/25 01:26:32;;;;;;;6.57;4.93;;;4.20;99.90;;;;;;5029717;28;20428;-71
2022/11/25 01:29:00;;;;;;;9.73;5.07;;;4.20;99.90;;;;;;5029682;28;20433;-71
2022/11/25 01:31:29;;;;;;;7.83;4.60;;;4.20;99.90;;;;;;5034309;28;20460;-71
2022/11/25 01:34:01;;;;;;;6.77;4.60;;;4.20;99.90;;;;;;5032435;28;20461;-71
2022/11/25 01:36:27;;;;;;;6.37;4.87;;;4.20;99.90;;;;;;5033603;28;20437;-71
2022/11/25 01:38:55;;;;;;;6.80;5.67;;;4.20;99.90;;;;;;5038287;28;20437;-71
2022/11/25 01:41:22;;;;;;;7.07;4.00;;;4.30;99.90;;;;;;5036827;28;20479;-71
2022/11/25 01:44:13;;;;;;;5.10;4.60;;;4.30;99.90;;;;;;5039015;28;20432;-71
2022/11/25 01:47:11;;;;;;;9.80;4.67;;;4.40;99.90;;;;;;5037624;28;20436;-71
2022/11/25 01:49:48;;;;;;;12.50;5.77;;;4.30;99.90;;;;;;5033901;28;20436;-71
2022/11/25 01:52:23;;;;;;;10.83;4.87;;;4.40;99.90;;;;;;5031943;28;20470;-71
2022/11/25 01:55:14;;;;;;;6.20;4.50;;;4.40;99.90;;;;;;5036240;28;21031;-71
2022/11/25 01:57:46;;;;;;;5.83;4.30;;;4.30;99.90;;;;;;5041623;28;20519;-71
2022/11/25 02:00:12;;;;;;;7.40;3.90;;;4.30;99.90;;;;;;5034208;28;20441;-71
2022/11/25 02:02:38;;;;;;;6.20;4.67;;;4.20;99.90;;;;;;5033466;28;20869;-71
2022/11/25 02:05:09;;;;;;;10.10;6.17;;;4.20;99.90;;;;;;5039128;28;20530;-71
2022/11/25 02:07:37;;;;;;;9.60;4.70;;;4.20;99.90;;;;;;5044733;28;20174;-71
2022/11/25 02:10:07;;;;;;;4.80;4.30;;;4.30;99.90;;;;;;5035764;28;20941;-71
2022/11/25 02:12:35;;;;;;;6.83;4.47;;;4.30;99.90;;;;;;5029658;28;20471;-71
2022/11/25 02:15:01;;;;;;;9.73;4.10;;;4.30;99.90;;;;;;5038078;28;21026;-71
2022/11/25 02:17:27;;;;;;;8.00;4.50;;;4.30;99.90;;;;;;5037003;28;20828;-71
2022/11/25 02:20:08;;;;;;;6.53;4.40;;;4.30;99.90;;;;;;5028283;28;20462;-71
2022/11/25 02:22:55;;;;;;;7.70;5.20;;;4.20;99.90;;;;;;5028429;28;20193;-71
2022/11/25 02:25:27;;;;;;;6.53;4.00;;;4.20;99.90;;;;;;5026720;28;20464;-71
2022/11/25 02:28:10;;;;;;;7.07;4.60;;;4.20;99.90;;;;;;5028116;28;20447;-71
2022/11/25 02:30:36;;;;;;;8.40;5.27;;;4.10;99.90;;;;;;5030328;28;20467;-71
2022/11/25 02:33:02;;;;;;;9.43;5.47;;;4.20;99.90;;;;;;5032196;28;20495;-71
2022/11/25 02:35:38;;;;;;;6.67;4.73;;;4.20;99.90;;;;;;5030068;28;20445;-71
2022/11/25 02:38:08;;;;;;;7.20;4.50;;;4.20;99.90;;;;;;5029978;28;20665;-71
2022/11/25 02:40:56;;;;;;;8.57;5.63;;;4.20;99.90;;;;;;5028271;28;20437;-71
2022/11/25 02:43:22;;;;;;;4.63;4.00;;;4.20;99.90;;;;;;5028314;28;20449;-71
2022/11/25 02:46:03;;;;;;;7.90;3.67;;;4.20;99.90;;;;;;5028195;28;20773;-71
2022/11/25 02:48:35;;;;;;;5.90;5.07;;;4.20;99.90;;;;;;5033523;28;20193;-71
2022/11/25 02:51:01;;;;;;;5.30;4.80;;;4.10;99.90;;;;;;5031024;28;20528;-71
2022/11/25 02:53:27;;;;;;;4.30;3.90;;;3.90;99.90;;;;;;5040251;28;20463;-71
2022/11/25 02:55:53;;;;;;;5.60;4.07;;;3.90;99.90;;;;;;5041508;28;21020;-71
2022/11/25 02:58:19;;;;;;;7.20;4.23;;;3.90;99.90;;;;;;5043137;28;20508;-71
2022/11/25 03:00:45;;;;;;;11.03;4.20;;;3.90;99.90;;;;;;5030387;28;20462;-71
2022/11/25 03:03:11;;;;;;;6.17;4.00;;;3.90;99.90;;;;;;5038986;28;20225;-72
2022/11/25 03:05:37;;;;;;;5.93;4.00;;;3.90;99.90;;;;;;5036351;28;20595;-71
2022/11/25 03:08:03;;;;;;;7.40;4.43;;;3.80;99.90;;;;;;5042870;28;20476;-71
2022/11/25 03:10:29;;;;;;;7.10;4.50;;;3.80;99.90;;;;;;5037473;28;20190;-71
2022/11/25 03:12:55;;;;;;;9.23;5.00;;;3.80;99.90;;;;;;5041124;28;20472;-71
2022/11/25 03:15:21;;;;;;;5.83;4.30;;;3.80;99.90;;;;;;5041815;28;20443;-71
2022/11/25 03:17:47;;;;;;;7.73;4.73;;;3.80;99.90;;;;;;5031705;28;20187;-71
2022/11/25 03:20:14;;;;;;;7.20;3.73;;;3.90;99.90;;;;;;5035316;28;20500;-71
2022/11/25 03:22:40;;;;;;;5.43;4.07;;;3.90;99.90;;;;;;5033979;28;20681;-71
2022/11/25 03:25:06;;;;;;;7.37;4.07;;;3.90;99.90;;;;;;5041533;28;20789;-71
2022/11/25 03:27:35;;;;;;;7.77;4.10;;;3.90;99.90;;;;;;5032724;28;20462;-71
2022/11/25 03:30:01;;;;;;;4.40;4.00;;;3.90;99.90;;;;;;5043582;28;20186;-71
2022/11/25 03:32:27;;;;;;;6.97;4.40;;;3.90;99.90;;;;;;5044295;28;20452;-71
2022/11/25 03:34:52;;;;;;;7.90;4.50;;;4.00;99.90;;;;;;5042615;28;20834;-71
2022/11/25 03:37:18;;;;;;;6.00;3.80;;;4.00;99.90;;;;;;5036009;28;20188;-71
2022/11/25 03:39:44;;;;;;;7.63;4.30;;;4.10;99.90;;;;;;5043772;28;20192;-71
2022/11/25 03:42:09;;;;;;;6.70;4.80;;;4.10;99.90;;;;;;5037348;28;20205;-71
2022/11/25 03:44:35;;;;;;;6.33;5.30;;;4.10;99.90;;;;;;5038355;28;20828;-71
2022/11/25 03:47:01;;;;;;;6.93;5.40;;;4.20;99.90;;;;;;5037448;28;20190;-71
2022/11/25 03:49:26;;;;;;;9.97;5.97;;;4.20;99.90;;;;;;5037878;28;20269;-71
2022/11/25 03:51:52;;;;;;;7.03;4.70;;;4.10;99.90;;;;;;5032312;28;20729;-71
2022/11/25 03:54:17;;;;;;;8.07;4.97;;;4.10;99.90;;;;;;5033569;28;20245;-71
2022/11/25 03:56:43;;;;;;;8.13;5.23;;;4.10;99.90;;;;;;5031878;28;20202;-71
2022/11/25 03:59:08;;;;;;;7.10;4.90;;;4.00;99.90;;;;;;5041566;28;20229;-71
2022/11/25 04:01:34;;;;;;;8.97;4.90;;;4.00;99.90;;;;;;5034728;28;20584;-71
2022/11/25 04:03:59;;;;;;;5.53;4.90;;;4.00;99.90;;;;;;5038340;28;20185;-71
2022/11/25 04:06:25;;;;;;;7.50;5.80;;;4.00;99.90;;;;;;5038080;28;20754;-71
2022/11/25 04:08:50;;;;;;;14.10;5.17;;;4.00;99.90;;;;;;5035398;28;20220;-71
2022/11/25 04:11:16;;;;;;;6.67;4.77;;;3.90;99.90;;;;;;5032906;28;20224;-71
2022/11/25 04:13:42;;;;;;;11.60;5.20;;;3.90;99.90;;;;;;5034439;28;20217;-71
2022/11/25 04:16:27;;;;;;;4.83;4.43;;;3.90;99.90;;;;;;5036271;28;20183;-71
2022/11/25 04:18:53;;;;;;;6.20;5.37;;;3.80;99.90;;;;;;5038100;28;20214;-71
2022/11/25 04:21:18;;;;;;;8.47;4.90;;;3.80;99.90;;;;;;5039438;28;20488;-71
2022/11/25 04:23:44;;;;;;;7.47;6.13;;;3.80;99.90;;;;;;5035522;28;20593;-71
2022/11/25 04:26:09;;;;;;;8.00;5.93;;;3.80;99.90;;;;;;5033782;28;20190;-71
2022/11/25 04:28:35;;;;;;;10.33;6.20;;;3.80;99.90;;;;;;5036051;28;20243;-71
2022/11/25 04:31:05;;;;;;;8.73;6.87;;;3.80;99.90;;;;;;5039532;28;20195;-71
2022/11/25 04:33:31;;;;;;;9.87;6.47;;;3.80;99.90;;;;;;5040606;28;20216;-71
2022/11/25 04:35:56;;;;;;;8.13;6.00;;;3.80;99.90;;;;;;5027825;28;20443;-72
2022/11/25 04:38:22;;;;;;;7.07;5.00;;;3.80;99.90;;;;;;5040308;28;20572;-72
2022/11/25 04:40:47;;;;;;;8.07;6.27;;;3.80;99.90;;;;;;5042571;28;20185;-72
2022/11/25 04:43:13;;;;;;;7.50;5.60;;;3.80;99.90;;;;;;5044419;28;20193;-72
2022/11/25 04:45:39;;;;;;;8.17;5.90;;;3.70;99.90;;;;;;5039515;28;20198;-71
2022/11/25 04:48:05;;;;;;;7.90;6.27;;;3.70;99.90;;;;;;5045177;28;20644;-72
2022/11/25 04:50:30;;;;;;;7.33;5.60;;;3.60;99.90;;;;;;5034279;28;20202;-71
2022/11/25 04:52:56;;;;;;;10.57;8.27;;;3.60;99.90;;;;;;5043153;28;20674;-71
2022/11/25 04:55:21;;;;;;;11.23;7.70;;;3.50;99.90;;;;;;5039056;28;20179;-71
2022/11/25 04:57:47;;;;;;;12.97;8.87;;;3.50;99.90;;;;;;5040570;28;20522;-71
2022/11/25 05:00:13;;;;;;;15.80;8.93;;;3.30;99.90;;;;;;5042606;28;20266;-71
2022/11/25 05:02:38;;;;;;;10.17;8.07;;;3.30;99.90;;;;;;5042984;28;20204;-71
2022/11/25 05:05:05;;;;;;;11.50;10.40;;;3.20;99.90;;;;;;5039735;28;20189;-71
2022/11/25 05:07:30;;;;;;;10.93;8.70;;;3.20;99.90;;;;;;5039627;28;20185;-71
2022/11/25 05:09:56;;;;;;;11.23;8.13;;;3.10;99.90;;;;;;5038930;28;20443;-71
2022/11/25 05:12:25;;;;;;;11.83;7.47;;;3.20;99.90;;;;;;5039829;28;20202;-71
2022/11/25 05:14:51;;;;;;;8.83;7.87;;;3.10;99.90;;;;;;5047897;28;20959;-71
2022/11/25 05:17:19;;;;;;;9.93;8.03;;;3.20;99.90;;;;;;5031554;28;20563;-71
2022/11/25 05:19:45;;;;;;;11.83;7.83;;;3.20;99.90;;;;;;5025787;28;20185;-71
2022/11/25 05:22:12;;;;;;;9.17;6.93;;;3.20;99.90;;;;;;5024458;28;20453;-71
2022/11/25 05:24:37;;;;;;;10.33;6.70;;;3.20;99.90;;;;;;5037247;28;20327;-71
2022/11/25 05:27:03;;;;;;;9.77;6.43;;;3.10;99.90;;;;;;5030282;28;20906;-71
2022/11/25 05:29:29;;;;;;;7.90;6.37;;;3.10;99.90;;;;;;5029591;28;20212;-71
2022/11/25 05:31:54;;;;;;;8.10;6.77;;;3.00;99.90;;;;;;5038702;28;20303;-71
2022/11/25 05:34:20;;;;;;;13.23;6.83;;;3.00;99.90;;;;;;5037486;28;20202;-71
2022/11/25 05:36:45;;;;;;;9.63;7.23;;;3.00;99.90;;;;;;5038368;28;20181;-71
2022/11/25 05:39:11;;;;;;;9.70;6.10;;;3.00;99.90;;;;;;5034338;28;20193;-71
2022/11/25 05:41:36;;;;;;;9.87;6.10;;;3.00;99.90;;;;;;5035075;28;20206;-72
2022/11/25 05:44:04;;;;;;;10.10;6.20;;;3.00;99.90;;;;;;5038371;28;20644;-70
2022/11/25 05:46:29;;;;;;;9.30;6.37;;;3.00;99.90;;;;;;5029167;28;20174;-71
2022/11/25 05:48:56;;;;;;;10.57;6.10;;;3.00;99.90;;;;;;5032180;28;20441;-71
2022/11/25 05:51:22;;;;;;;12.90;5.80;;;3.00;99.90;;;;;;5038002;28;20464;-72
2022/11/25 05:53:47;;;;;;;8.17;7.30;;;3.00;99.90;;;;;;5038573;28;20467;-71
2022/11/25 05:56:13;;;;;;;11.20;6.20;;;3.00;99.90;;;;;;5039246;28;20469;-72
2022/11/25 05:58:38;;;;;;;11.53;6.43;;;3.00;99.90;;;;;;5027486;28;20193;-71
2022/11/25 06:01:08;;;;;;;8.90;6.70;;;3.00;99.90;;;;;;5033060;28;20245;-71
2022/11/25 06:03:34;;;;;;;6.73;5.83;;;3.00;99.90;;;;;;5049659;28;20224;-71
2022/11/25 06:05:59;;;;;;;7.87;5.60;;;3.00;99.90;;;;;;5052042;28;20415;-71
2022/11/25 06:08:26;;;;;;;9.80;6.20;;;3.00;99.90;;;;;;5051779;28;20169;-71
2022/11/25 06:10:52;;;;;;;9.10;6.17;;;3.00;99.90;;;;;;5051350;28;20174;-71
2022/11/25 06:13:19;;;;;;;10.77;7.10;;;3.10;99.90;;;;;;5051936;28;20563;-71
2022/11/25 06:15:45;;;;;;;12.77;7.20;;;3.10;99.90;;;;;;5052020;28;20426;-71
2022/11/25 06:18:13;;;;;;;8.97;5.57;;;3.10;99.90;;;;;;5051781;28;20454;-71
2022/11/25 06:20:39;;;;;;;7.27;6.10;;;3.10;99.90;;;;;;5051898;28;20420;-71
2022/11/25 06:23:06;;;;;;;6.87;6.17;;;3.10;99.90;;;;;;5051860;28;20491;-72
2022/11/25 06:25:31;;;;;;;9.83;6.40;;;3.10;99.90;;;;;;5051881;28;20197;-71
2022/11/25 06:27:58;;;;;;;11.10;6.50;;;3.20;99.90;;;;;;5051854;28;20460;-71
2022/11/25 06:30:24;;;;;;;11.37;7.50;;;3.20;99.90;;;;;;5051565;28;20256;-72
2022/11/25 06:32:50;;;;;;;12.70;7.30;;;3.20;99.90;;;;;;5051766;28;20520;-71
2022/11/25 06:35:15;;;;;;;8.23;6.27;;;3.20;99.90;;;;;;5051862;28;20448;-72
2022/11/25 06:37:41;;;;;;;9.40;6.17;;;3.10;99.90;;;;;;5051689;28;20470;-71
2022/11/25 06:40:07;;;;;;;9.03;5.80;;;3.10;99.90;;;;;;5051408;28;20170;-72
2022/11/25 06:42:33;;;;;;;11.13;6.33;;;3.10;99.90;;;;;;5051904;28;20221;-71
2022/11/25 06:44:58;;;;;;;9.00;6.20;;;3.10;99.90;;;;;;5051757;28;20451;-71
2022/11/25 06:47:25;;;;;;;8.63;6.90;;;3.10;99.90;;;;;;5051681;28;20427;-71
2022/11/25 06:49:50;;;;;;;8.73;6.27;;;3.10;99.90;;;;;;5051371;28;20247;-71
2022/11/25 06:52:16;;;;;;;7.60;6.80;;;3.10;99.90;;;;;;5051555;28;20481;-71
2022/11/25 06:54:41;;;;;;;13.13;6.20;;;3.20;99.90;;;;;;5051507;28;20197;-71
2022/11/25 06:57:09;;;;;;;8.07;6.30;;;3.20;99.90;;;;;;5051593;28;20177;-72
2022/11/25 06:59:34;;;;;;;10.17;6.73;;;3.20;99.90;;;;;;5051287;28;20195;-72
2022/11/25 07:02:00;;;;;;;14.03;7.80;;;3.30;99.90;;;;;;5054377;28;20459;-72
2022/11/25 07:04:25;;;;;;;6.37;5.67;;;3.50;99.90;;;;;;5055391;28;20645;-72
2022/11/25 07:06:51;;;;;;;7.77;6.50;;;3.60;99.90;;;;;;5055517;28;20173;-71
2022/11/25 07:09:18;;;;;;;7.93;6.00;;;3.70;99.90;;;;;;5055031;28;20166;-72
2022/11/25 07:11:44;;;;;;;7.20;5.13;;;3.80;99.90;;;;;;5055455;28;20728;-72
2022/11/25 07:14:15;;;;;;;9.00;5.63;;;3.90;99.90;;;;;;5055122;28;20491;-72
2022/11/25 07:16:43;;;;;;;7.07;6.37;;;4.00;99.90;;;;;;5055122;28;20424;-73
2022/11/25 07:19:15;;;;;;;9.10;6.67;;;4.10;99.90;;;;;;5054877;28;20471;-72
2022/11/25 07:21:43;;;;;;;7.57;5.93;;;4.00;99.90;;;;;;5055062;28;20493;-72
2022/11/25 07:24:09;;;;;;;7.77;5.73;;;4.10;99.90;;;;;;5055072;28;20454;-72
2022/11/25 07:26:37;;;;;;;7.57;5.80;;;4.20;99.90;;;;;;5054940;28;20424;-72
2022/11/25 07:29:05;;;;;;;7.60;6.80;;;4.30;99.90;;;;;;5054693;28;20423;-73
2022/11/25 07:31:33;;;;;;;6.80;5.50;;;4.50;99.90;;;;;;5054836;28;20455;-72
2022/11/25 07:34:01;;;;;;;7.53;5.50;;;4.60;99.90;;;;;;5054606;28;20547;-72
2022/11/25 07:36:28;;;;;;;8.00;6.10;;;4.60;99.90;;;;;;5054817;28;20422;-73
2022/11/25 07:38:54;;;;;;;9.80;7.80;;;4.70;99.90;;;;;;5054507;28;20423;-71
2022/11/25 07:41:22;;;;;;;9.10;7.57;;;4.80;99.90;;;;;;5054656;28;21127;-73
2022/11/25 07:43:50;;;;;;;13.30;11.40;;;4.80;99.90;;;;;;5054791;28;20427;-73
2022/11/25 07:46:17;;;;;;;11.40;9.30;;;4.80;99.90;;;;;;5054554;28;20427;-73
2022/11/25 07:48:44;;;;;;;11.30;8.03;;;4.80;99.90;;;;;;5054198;28;20447;-72
2022/11/25 07:51:25;;;;;;;7.10;5.63;;;4.90;99.90;;;;;;5054635;28;20478;-73
2022/11/25 07:53:53;;;;;;;5.57;4.70;;;5.00;99.90;;;;;;5054566;28;20505;-73
2022/11/25 07:56:18;;;;;;;6.97;5.00;;;5.10;99.90;;;;;;5054484;28;20416;-73
2022/11/25 07:58:44;;;;;;;6.60;4.30;;;5.20;99.90;;;;;;5054093;28;20416;-72
2022/11/25 08:01:11;;;;;;;8.70;4.40;;;5.40;99.90;;;;;;5054277;28;20335;-72
2022/11/25 08:03:38;;;;;;;6.63;5.07;;;5.50;99.90;;;;;;5054304;28;20431;-72
2022/11/25 08:06:07;;;;;;;8.20;5.30;;;5.50;99.90;;;;;;5054259;28;20908;-72
2022/11/25 08:08:34;;;;;;;4.93;4.20;;;5.60;99.90;;;;;;5053990;28;20577;-71
2022/11/25 08:10:59;;;;;;;7.50;4.83;;;5.60;99.90;;;;;;5053729;28;20439;-72
2022/11/25 08:13:25;;;;;;;8.53;5.03;;;5.60;99.90;;;;;;5053112;28;20972;-73
2022/11/25 08:15:51;;;;;;;5.43;4.93;;;5.60;99.90;;;;;;5054094;28;20181;-73
2022/11/25 08:18:17;;;;;;;9.37;5.13;;;5.60;99.90;;;;;;5053746;28;20639;-73
2022/11/25 08:20:43;;;;;;;7.83;5.73;;;5.70;99.90;;;;;;5054002;28;20180;-73
2022/11/25 08:23:08;;;;;;;7.23;6.13;;;5.70;99.90;;;;;;5053921;28;20197;-72
2022/11/25 08:25:39;;;;;;;13.90;6.90;;;5.70;99.90;;;;;;5053903;28;20181;-72
2022/11/25 08:28:06;;;;;;;10.23;5.77;;;5.70;99.90;;;;;;5053805;28;20656;-73
2022/11/25 08:30:32;;;;;;;8.80;5.07;;;5.80;99.90;;;;;;5053809;28;20424;-73
2022/11/25 08:32:58;;;;;;;9.00;5.43;;;5.90;99.90;;;;;;5053628;28;20542;-72
2022/11/25 08:35:24;;;;;;;5.77;4.30;;;6.00;99.90;;;;;;5053799;28;20634;-73
2022/11/25 08:37:50;;;;;;;11.50;6.43;;;6.20;99.90;;;;;;5053636;28;20469;-72
2022/11/25 08:40:15;;;;;;;5.97;4.50;;;6.30;99.90;;;;;;5053313;28;20177;-72
2022/11/25 08:42:41;;;;;;;8.80;6.00;;;6.50;99.90;;;;;;5053543;28;20217;-73
2022/11/25 08:45:09;;;;;;;4.77;4.20;;;6.50;99.90;;;;;;5053678;28;20644;-73
2022/11/25 08:47:35;;;;;;;6.40;4.70;;;6.60;99.90;;;;;;5053455;28;20174;-73
2022/11/25 08:50:01;;;;;;;6.37;4.90;;;6.70;99.90;;;;;;5053204;28;20982;-72
2022/11/25 08:52:28;;;;;;;6.80;4.93;;;6.80;99.90;;;;;;5053251;28;20707;-72
2022/11/25 08:54:53;;;;;;;3.27;2.80;;;6.90;99.90;;;;;;5053392;28;20565;-73
2022/11/25 08:57:19;;;;;;;3.70;3.00;;;7.00;99.90;;;;;;5053493;28;20420;-72
2022/11/25 08:59:44;;;;;;;5.20;3.60;;;7.20;99.90;;;;;;5053001;28;20250;-72
2022/11/25 09:02:13;;;;;;;4.57;3.43;;;7.50;99.90;;;;;;5053248;28;20225;-73
2022/11/25 09:04:39;;;;;;;3.70;3.03;;;8.00;99.90;;;;;;5053218;28;20208;-72
2022/11/25 09:07:04;;;;;;;6.10;3.10;;;8.60;99.90;;;;;;5051747;28;20431;-73
2022/11/25 09:09:31;;;;;;;5.97;3.00;;;9.20;99.90;;;;;;5052808;28;20184;-72
2022/11/25 09:11:56;;;;;;;4.10;3.30;;;10.10;99.90;;;;;;5052821;28;20571;-73
2022/11/25 09:14:22;;;;;;;3.33;3.03;;;10.50;99.90;;;;;;5052911;28;20460;-73
2022/11/25 09:16:48;;;;;;;6.67;2.97;;;10.30;99.90;;;;;;5052920;28;20196;-73
2022/11/25 09:19:13;;;;;;;6.70;3.50;;;10.50;99.90;;;;;;5052647;28;20169;-73
2022/11/25 09:21:39;;;;;;;4.47;4.00;;;10.70;99.90;;;;;;5052727;28;20432;-73
2022/11/25 09:24:05;;;;;;;8.00;4.50;;;10.30;99.90;;;;;;5052639;28;20627;-71
2022/11/25 09:26:34;;;;;;;3.87;3.30;;;9.90;99.90;;;;;;5052766;28;20193;-72
2022/11/25 09:29:00;;;;;;;3.93;3.13;;;9.70;99.90;;;;;;5052421;28;20177;-72
2022/11/25 09:31:25;;;;;;;7.23;4.97;;;9.70;99.90;;;;;;5052552;28;20448;-72
2022/11/25 09:33:51;;;;;;;5.17;3.30;;;10.00;99.90;;;;;;5052550;28;20213;-73
2022/11/25 09:36:18;;;;;;;6.60;3.07;;;10.20;99.90;;;;;;5052568;28;20257;-72
2022/11/25 09:38:44;;;;;;;4.73;3.00;;;10.40;99.90;;;;;;5052359;28;20166;-73
2022/11/25 09:46:40;;;;;;;4.60;2.50;;;10.40;99.90;;;;;;5052512;28;20777;-72
2022/11/25 09:47:20;;;;;;;4.83;3.17;;;10.20;99.90;;;;;;5057515;28;20446;-72
2022/11/25 09:49:57;;;;;;;5.93;4.90;;;10.10;99.90;;;;;;5052122;28;20474;-72
2022/11/25 09:52:47;;;;;;;12.10;3.83;;;10.00;99.90;;;;;;5052239;28;20950;-72
2022/11/25 09:55:18;;;;;;;32.23;24.00;;;9.70;99.90;;;;;;5052236;28;20578;-73
2022/11/25 09:58:22;;;;;;;11.27;7.90;;;9.70;99.90;;;;;;5052331;28;20499;-72
2022/11/25 10:00:50;;;;;;;19.20;14.43;;;9.60;99.90;;;;;;5051524;28;20438;-72
2022/11/25 10:03:36;;;;;;;7.97;3.10;;;9.60;99.90;;;;;;5052217;28;20416;-72
2022/11/25 10:06:22;;;;;;;9.40;3.70;;;9.40;99.90;;;;;;5052294;28;20481;-73
2022/11/25 10:08:51;;;;;;;5.00;3.37;;;9.50;99.90;;;;;;5050615;28;20419;-72
2022/11/25 10:11:19;;;;;;;3.70;2.90;;;9.50;99.90;;;;;;5051928;28;20730;-73
2022/11/25 10:13:57;;;;;;;5.63;3.17;;;9.70;99.90;;;;;;5051926;28;20462;-72
2022/11/25 10:16:51;;;;;;;7.00;3.87;;;9.80;99.90;;;;;;5051908;28;20427;-72
2022/11/25 10:19:22;;;;;;;5.40;3.50;;;10.20;99.90;;;;;;5051783;28;20774;-72
2022/11/25 10:21:48;;;;;;;5.60;3.50;;;10.40;99.90;;;;;;5051834;28;20443;-72
2022/11/25 10:24:16;;;;;;;3.53;3.13;;;10.50;99.90;;;;;;5051856;28;20424;-71
2022/11/25 10:26:45;;;;;;;3.53;2.70;;;11.50;99.90;;;;;;5051883;28;20933;-72
2022/11/25 10:29:15;;;;;;;3.50;3.07;;;12.70;99.90;;;;;;5051564;28;20420;-72
2022/11/25 10:31:42;;;;;;;7.97;3.40;;;12.40;99.90;;;;;;5051703;28;20447;-72
2022/11/25 10:34:27;;;;;;;6.47;3.30;;;12.00;99.90;;;;;;5051798;28;20456;-72
2022/11/25 10:36:55;;;;;;;7.20;4.70;;;12.20;99.90;;;;;;5054776;28;20423;-70
2022/11/25 10:39:26;;;;;;;5.50;5.00;;;14.70;99.90;;;;;;5054331;28;20420;-71
2022/11/25 10:41:58;;;;;;;10.40;3.13;;;17.50;99.90;;;;;;5055761;28;20439;-72
2022/11/25 10:44:38;;;;;;;4.33;2.63;;;18.30;99.90;;;;;;5055799;28;20426;-70
2022/11/25 10:47:22;;;;;;;6.27;2.83;;;17.10;99.90;;;;;;5055747;28;20469;-72
2022/11/25 10:50:00;;;;;;;10.10;2.87;;;14.90;99.90;;;;;;5054191;28;20424;-71
2022/11/25 10:52:29;;;;;;;5.37;3.17;;;13.50;99.90;;;;;;5055613;28;20435;-72
2022/11/25 10:55:10;;;;;;;5.87;2.27;;;12.40;99.90;;;;;;5055516;28;20553;-71
2022/11/25 10:57:39;;;;;;;3.30;2.67;;;11.90;99.90;;;;;;5055654;28;20412;-72
2022/11/25 11:00:07;;;;;;;4.00;2.37;;;11.50;99.90;;;;;;5055203;28;20415;-72
2022/11/25 11:02:40;;;;;;;3.57;2.27;;;11.10;99.90;;;;;;5055352;28;20456;-71
2022/11/25 11:05:08;;;;;;;4.50;2.80;;;11.00;99.90;;;;;;5055489;28;20415;-71
2022/11/25 11:07:41;;;;;;;5.00;2.67;;;10.80;99.90;;;;;;5055410;28;20464;-71
2022/11/25 11:10:25;;;;;;;7.47;2.93;;;10.60;99.90;;;;;;5055053;28;20503;-72
2022/11/25 11:13:01;;;;;;;6.67;2.40;;;10.50;99.90;;;;;;5055158;28;20474;-71
2022/11/25 11:15:30;;;;;;;5.10;2.00;;;10.40;99.90;;;;;;5055257;28;20420;-71
2022/11/25 11:17:59;;;;;;;8.37;2.73;;;10.30;99.90;;;;;;5055245;28;20781;-71
2022/11/25 11:20:30;;;;;;;3.70;2.43;;;10.30;99.90;;;;;;5054956;28;20411;-72
2022/11/25 11:22:59;;;;;;;3.93;2.53;;;10.20;99.90;;;;;;5053900;28;20464;-71
2022/11/25 11:25:29;;;;;;;5.50;3.53;;;10.10;99.90;;;;;;5055077;28;20503;-72
2022/11/25 11:27:55;;;;;;;5.60;3.00;;;10.00;99.90;;;;;;5055138;28;20404;-72
2022/11/25 11:30:23;;;;;;;5.13;3.33;;;9.90;99.90;;;;;;5054809;28;20465;-71
2022/11/25 11:33:03;;;;;;;10.57;3.67;;;9.90;99.90;;;;;;5054783;28;20671;-72
2022/11/25 11:35:42;;;;;;;4.50;2.50;;;9.80;99.90;;;;;;5054886;28;20411;-71
2022/11/25 11:38:45;;;;;;;4.57;2.80;;;9.80;99.90;;;;;;5054931;28;20408;-71
2022/11/25 11:41:37;;;;;;;5.23;3.30;;;9.80;99.90;;;;;;5054728;28;20438;-72
2022/11/25 11:44:08;;;;;;;6.30;3.27;;;9.80;99.90;;;;;;5054723;28;20412;-71
2022/11/25 11:46:59;;;;;;;4.00;2.50;;;9.70;99.90;;;;;;5054139;28;20419;-71
2022/11/25 11:49:45;;;;;;;3.33;2.60;;;9.60;99.90;;;;;;5054150;28;20895;-72
2022/11/25 11:52:25;;;;;;;8.93;3.33;;;9.50;99.90;;;;;;5054533;28;20431;-72
2022/11/25 11:54:55;;;;;;;11.60;6.77;;;9.50;99.90;;;;;;5054436;28;20554;-71
2022/11/25 11:57:52;;;;;;;7.80;4.43;;;9.50;99.90;;;;;;5054465;28;20503;-71
2022/11/25 12:00:19;;;;;;;4.67;3.03;;;9.50;99.90;;;;;;5054411;28;20873;-70
2022/11/25 12:03:17;;;;;;;9.40;4.93;;;9.60;99.90;;;;;;5054431;28;20460;-72
2022/11/25 12:05:43;;;;;;;5.57;2.97;;;9.60;99.90;;;;;;5054381;28;20782;-71
2022/11/25 12:08:13;;;;;;;5.60;2.60;;;9.70;99.90;;;;;;5054137;28;20420;-70
2022/11/25 12:10:50;;;;;;;4.00;2.93;;;9.80;99.90;;;;;;5054160;28;20447;-72
2022/11/25 12:13:24;;;;;;;4.03;3.33;;;9.70;99.90;;;;;;5054110;28;20867;-70
2022/11/25 12:16:04;;;;;;;6.80;3.13;;;9.80;99.90;;;;;;5054179;28;20462;-71
2022/11/25 12:18:37;;;;;;;5.60;3.10;;;9.70;99.90;;;;;;5052562;28;20420;-72
2022/11/25 12:21:09;;;;;;;6.67;3.30;;;9.60;99.90;;;;;;5053886;28;20400;-71
2022/11/25 12:24:03;;;;;;;8.80;3.50;;;9.40;99.90;;;;;;5053998;28;20415;-71
2022/11/25 12:26:37;;;;;;;7.77;4.00;;;9.40;99.90;;;;;;5053961;28;20470;-71
2022/11/25 12:29:12;;;;;;;10.20;5.90;;;9.50;99.90;;;;;;5053422;28;20488;-71
2022/11/25 12:31:43;;;;;;;6.07;3.00;;;9.70;99.90;;;;;;5053738;28;20449;-72
2022/11/25 12:34:20;;;;;;;3.70;3.40;;;9.80;99.90;;;;;;5053629;28;20464;-72
2022/11/25 12:36:46;;;;;;;7.00;3.50;;;9.90;99.90;;;;;;5053662;28;20412;-71
2022/11/25 12:39:39;;;;;;;6.70;3.83;;;9.90;99.90;;;;;;5053277;28;20810;-71
2022/11/25 12:42:15;;;;;;;4.87;3.37;;;10.00;99.90;;;;;;5053436;28;20439;-71
2022/11/25 12:45:05;;;;;;;3.40;3.10;;;10.00;99.90;;;;;;5053452;28;20422;-71
2022/11/25 12:47:31;;;;;;;6.20;3.70;;;10.10;99.90;;;;;;5053513;28;20499;-72
2022/11/25 12:49:57;;;;;;;8.30;4.10;;;10.10;99.90;;;;;;5053063;28;20982;-71
2022/11/25 12:52:39;;;;;;;9.17;5.90;;;10.10;99.90;;;;;;5053217;28;20518;-71
2022/11/25 12:55:23;;;;;;;6.90;5.20;;;10.10;99.90;;;;;;5053301;28;20614;-72
2022/11/25 12:58:15;;;;;;;9.20;5.10;;;10.10;99.90;;;;;;5053155;28;20722;-72
2022/11/25 13:01:05;;;;;;;3.53;3.20;;;10.00;99.90;;;;;;5053181;28;20399;-71
2022/11/25 13:03:55;;;;;;;5.73;4.60;;;10.00;99.90;;;;;;5053151;28;20423;-71
2022/11/25 13:06:57;;;;;;;5.93;4.20;;;9.90;99.90;;;;;;5053072;28;20412;-72
2022/11/25 13:09:41;;;;;;;7.67;3.80;;;9.80;99.90;;;;;;5052767;28;20411;-72
2022/11/25 13:12:19;;;;;;;7.93;3.90;;;9.80;99.90;;;;;;5051942;28;20451;-70